Time;durP1;ratioP1;P1;durP2;ratioP2;P2;SDS_P1;SDS_P2;PMS_P1;PMS_P2;Temp;Humidity;BMP_temperature;BMP_pressure;BME280_temperature;BME280_humidity;BME280_pressure;Samples;Min_cycle;Max_cycle;Signal;HPM_P1;HPM_P2
2023/01/14 00:03:23;;;;;;;;;;;16.80;66.10;;;;;;10207144;28;93124;-61
2023/01/14 00:08:25;;;;;;;;;;;16.80;66.10;;;;;;10211855;28;93488;-61
2023/01/14 00:13:27;;;;;;;;;;;16.80;65.90;;;;;;10211790;28;93489;-60
2023/01/14 00:18:30;;;;;;;;;;;16.70;65.90;;;;;;10194981;28;94616;-61
2023/01/14 00:23:33;;;;;;;;;;;16.70;65.90;;;;;;10212899;28;93793;-60
2023/01/14 00:28:35;;;;;;;;;;;16.70;65.90;;;;;;10212158;28;94466;-61
2023/01/14 00:33:37;;;;;;;;;;;16.70;65.80;;;;;;10193612;28;93909;-60
2023/01/14 00:38:40;;;;;;;;;;;16.60;65.80;;;;;;10208962;28;96975;-61
2023/01/14 00:43:43;;;;;;;;;;;16.60;65.70;;;;;;10211765;28;94578;-61
2023/01/14 00:48:45;;;;;;;;;;;16.60;65.70;;;;;;10211268;28;93466;-60
2023/01/14 00:53:47;;;;;;;;;;;16.60;65.70;;;;;;10211263;28;93450;-61
2023/01/14 00:58:49;;;;;;;;;;;16.60;65.70;;;;;;10213064;28;93443;-61
2023/01/14 01:03:53;;;;;;;;;;;16.50;65.60;;;;;;10194147;28;93348;-60
2023/01/14 01:08:59;;;;;;;;;;;16.50;65.70;;;;;;10211269;28;94582;-60
2023/01/14 01:14:00;;;;;;;;;;;16.50;65.60;;;;;;10210580;28;93695;-60
2023/01/14 01:19:02;;;;;;;;;;;16.50;65.50;;;;;;10210340;28;94300;-61
2023/01/14 01:24:04;;;;;;;;;;;16.50;65.50;;;;;;10194461;28;93758;-60
2023/01/14 01:29:06;;;;;;;;;;;16.40;65.40;;;;;;10190578;28;98133;-61
2023/01/14 01:34:07;;;;;;;;;;;16.40;65.40;;;;;;10210227;28;93623;-61
2023/01/14 01:39:09;;;;;;;;;;;16.40;65.40;;;;;;10209978;28;93372;-60
2023/01/14 01:44:13;;;;;;;;;;;16.40;65.40;;;;;;10209981;28;92606;-61
2023/01/14 01:49:27;;;;;;;;;;;16.40;65.40;;;;;;10209392;28;94333;-61
2023/01/14 01:54:32;;;;;;;;;;;16.40;65.30;;;;;;10209960;28;94522;-61
2023/01/14 01:59:35;;;;;;;;;;;16.40;65.30;;;;;;10192524;28;94442;-61
2023/01/14 02:04:37;;;;;;;;;;;16.40;65.20;;;;;;10720054;22;94031;-63
2023/01/14 02:09:39;;;;;;;;;;;16.40;65.10;;;;;;10371768;28;94451;-62
2023/01/14 02:14:53;;;;;;;;;;;16.40;65.10;;;;;;10372084;28;94457;-63
2023/01/14 02:19:57;;;;;;;;;;;16.30;66.10;;;;;;10369338;28;95683;-63
2023/01/14 02:25:18;;;;;;;;;;;16.30;64.90;;;;;;10370213;28;93526;-63
2023/01/14 02:30:37;;;;;;;;;;;16.30;64.80;;;;;;10370956;28;93713;-63
2023/01/14 02:36:08;;;;;;;;;;;16.30;64.70;;;;;;10371038;28;94541;-62
2023/01/14 02:41:18;;;;;;;;;;;16.30;64.50;;;;;;10348250;28;94481;-63
2023/01/14 02:46:28;;;;;;;;;;;16.30;64.40;;;;;;10368580;28;93564;-63
2023/01/14 02:51:31;;;;;;;;;;;16.30;64.50;;;;;;10371422;28;94370;-62
2023/01/14 02:56:34;;;;;;;;;;;16.20;64.50;;;;;;10369230;28;92014;-62
2023/01/14 03:01:41;;;;;;;;;;;16.20;64.40;;;;;;10370761;28;93219;-63
2023/01/14 03:06:49;;;;;;;;;;;16.20;64.40;;;;;;10369916;28;94487;-63
2023/01/14 03:12:09;;;;;;;;;;;16.20;64.30;;;;;;10367143;28;95894;-63
2023/01/14 03:17:21;;;;;;;;;;;16.20;64.30;;;;;;10370184;28;94298;-62
2023/01/14 03:22:24;;;;;;;;;;;16.20;64.20;;;;;;10371025;28;94453;-63
2023/01/14 03:27:30;;;;;;;;;;;16.20;64.20;;;;;;10351831;28;93512;-62
2023/01/14 03:32:53;;;;;;;;;;;16.20;64.20;;;;;;10369650;28;94466;-64
2023/01/14 03:37:59;;;;;;;;;;;16.20;64.30;;;;;;10372280;28;93787;-63
2023/01/14 03:43:04;;;;;;;;;;;16.10;64.20;;;;;;10376795;28;94422;-63
2023/01/14 03:48:07;;;;;;;;;;;16.10;64.20;;;;;;10377604;28;92743;-63
2023/01/14 03:53:19;;;;;;;;;;;16.10;64.20;;;;;;10376120;28;94472;-63
2023/01/14 03:58:32;;;;;;;;;;;16.10;64.20;;;;;;10375670;28;94504;-63
2023/01/14 04:03:35;;;;;;;;;;;16.10;64.30;;;;;;10372051;28;95987;-63
2023/01/14 04:08:36;;;;;;;;;;;16.10;64.20;;;;;;10376536;28;93504;-62
2023/01/14 04:18:58;;;;;;;;;;;16.10;64.10;;;;;;10375204;28;93556;-62
2023/01/14 04:24:00;;;;;;;;;;;16.10;64.20;;;;;;10374606;28;94679;-63
2023/01/14 04:29:02;;;;;;;;;;;16.10;64.30;;;;;;10372749;28;93632;-63
2023/01/14 04:34:04;;;;;;;;;;;16.10;64.30;;;;;;10373680;28;93855;-63
2023/01/14 04:39:05;;;;;;;;;;;16.10;64.30;;;;;;10376636;28;93852;-63
2023/01/14 04:44:07;;;;;;;;;;;16.10;64.30;;;;;;10375649;28;93535;-63
2023/01/14 06:06:40;;;;;;;;;;;16.60;63.20;;;;;;10364865;28;93116;-62
2023/01/14 06:12:01;;;;;;;;;;;16.80;62.60;;;;;;10371678;28;93552;-62
2023/01/14 06:17:08;;;;;;;;;;;17.00;62.30;;;;;;10372472;28;94538;-63
2023/01/14 06:22:09;;;;;;;;;;;17.10;62.10;;;;;;10371815;28;93885;-63
2023/01/14 06:27:11;;;;;;;;;;;17.20;61.90;;;;;;10369380;28;94094;-62
2023/01/14 06:32:13;;;;;;;;;;;17.20;61.70;;;;;;10369268;28;93840;-63
2023/01/14 06:37:15;;;;;;;;;;;17.20;61.70;;;;;;10370825;28;93735;-63
2023/01/14 06:42:16;;;;;;;;;;;17.20;61.60;;;;;;10370239;28;94460;-62
2023/01/14 06:47:18;;;;;;;;;;;17.20;61.80;;;;;;10370813;28;94564;-63
2023/01/14 06:52:21;;;;;;;;;;;17.20;61.90;;;;;;10367869;28;95892;-62
2023/01/14 06:57:22;;;;;;;;;;;17.30;61.80;;;;;;10370203;28;94429;-63
2023/01/14 07:02:24;;;;;;;;;;;17.40;61.70;;;;;;10369618;28;93863;-63
2023/01/14 07:07:26;;;;;;;;;;;17.60;61.60;;;;;;10368957;28;93919;-63
2023/01/14 07:12:28;;;;;;;;;;;17.60;61.40;;;;;;10354144;28;93268;-64
2023/01/14 07:17:29;;;;;;;;;;;17.60;61.40;;;;;;10376438;28;94411;-64
2023/01/14 07:22:31;;;;;;;;;;;17.60;61.50;;;;;;10377258;28;93227;-63
2023/01/14 07:27:33;;;;;;;;;;;17.50;61.60;;;;;;10375734;28;93744;-63
2023/01/14 07:32:35;;;;;;;;;;;17.50;61.90;;;;;;10377068;28;92622;-64
2023/01/14 07:37:36;;;;;;;;;;;17.60;62.00;;;;;;10376617;28;93498;-64
2023/01/14 07:42:38;;;;;;;;;;;17.70;61.90;;;;;;10374053;28;96840;-63
2023/01/14 07:47:40;;;;;;;;;;;17.80;61.70;;;;;;10376087;28;94294;-63
2023/01/14 07:52:41;;;;;;;;;;;17.80;61.50;;;;;;10376540;28;94489;-64
2023/01/14 07:57:43;;;;;;;;;;;17.80;61.50;;;;;;10375960;28;93293;-63
2023/01/14 08:02:45;;;;;;;;;;;17.80;61.60;;;;;;10374419;28;94138;-63
2023/01/14 08:07:47;;;;;;;;;;;17.70;61.80;;;;;;10375424;28;93436;-64
2023/01/14 08:12:49;;;;;;;;;;;17.60;62.00;;;;;;10375202;28;93106;-60
2023/01/14 08:17:53;;;;;;;;;;;17.50;63.60;;;;;;10374720;28;91842;-61
2023/01/14 08:22:58;;;;;;;;;;;17.50;63.60;;;;;;10375539;28;93796;-61
2023/01/14 08:28:01;;;;;;;;;;;17.50;66.70;;;;;;10373757;28;93502;-64
2023/01/14 08:33:03;;;;;;;;;;;17.50;66.80;;;;;;10371523;28;95830;-63
2023/01/14 08:38:05;;;;;;;;;;;17.60;67.70;;;;;;10373380;28;93366;-63
2023/01/14 08:43:06;;;;;;;;;;;17.70;69.80;;;;;;10375109;28;93248;-62
2023/01/14 08:48:08;;;;;;;;;;;17.80;70.60;;;;;;10374368;28;93216;-62
2023/01/14 08:53:10;;;;;;;;;;;17.80;69.30;;;;;;10372800;28;94455;-61
2023/01/14 08:58:13;;;;;;;;;;;17.90;69.50;;;;;;10372751;28;94453;-64
2023/01/14 09:03:15;;;;;;;;;;;17.80;69.00;;;;;;10372381;28;93543;-60
2023/01/14 09:18:57;;;;;;;;;;;17.80;67.60;;;;;;10414859;27;93633;-62
2023/01/14 09:23:59;;;;;;;;;;;17.80;67.20;;;;;;10412694;28;96982;-62
2023/01/14 09:29:01;;;;;;;;;;;17.70;67.00;;;;;;10414233;27;93046;-62
2023/01/14 09:34:03;;;;;;;;;;;17.70;66.70;;;;;;10415485;28;94472;-63
2023/01/14 09:39:05;;;;;;;;;;;17.60;66.60;;;;;;10413379;27;93075;-62
2023/01/14 09:44:08;;;;;;;;;;;17.60;66.40;;;;;;10413251;28;92579;-62
2023/01/14 09:49:11;;;;;;;;;;;17.60;66.20;;;;;;10413731;27;94089;-62
2023/01/14 09:54:12;;;;;;;;;;;17.50;66.00;;;;;;10414411;27;94407;-62
2023/01/14 09:59:23;;;;;;;;;;;17.50;65.90;;;;;;10414829;27;92501;-62
2023/01/14 10:04:43;;;;;;;;;;;17.40;65.70;;;;;;10412324;27;93466;-62
2023/01/14 10:09:55;;;;;;;;;;;17.40;65.50;;;;;;10413598;28;94800;-62
2023/01/14 10:15:10;;;;;;;;;;;17.40;65.80;;;;;;10411060;27;95902;-62
2023/01/14 10:20:15;;;;;;;;;;;17.40;66.20;;;;;;10411342;28;93400;-62
2023/01/14 10:25:19;;;;;;;;;;;17.40;66.10;;;;;;10412656;28;94093;-62
2023/01/14 10:30:22;;;;;;;;;;;17.40;66.20;;;;;;10412450;27;93480;-63
2023/01/14 10:35:38;;;;;;;;;;;17.30;66.50;;;;;;10413040;27;93472;-64
2023/01/14 10:40:40;;;;;;;;;;;17.30;66.50;;;;;;10412062;27;93490;-65
2023/01/14 10:45:42;;;;;;;;;;;17.30;67.00;;;;;;10412448;27;93468;-63
2023/01/14 10:50:44;;;;;;;;;;;17.40;67.40;;;;;;10410106;28;91963;-63
2023/01/14 10:55:56;;;;;;;;;;;17.40;67.30;;;;;;10407260;27;92537;-62
2023/01/14 11:01:03;;;;;;;;;;;17.30;67.30;;;;;;10371206;27;93723;-62
2023/01/14 11:06:15;;;;;;;;;;;17.30;67.50;;;;;;10368196;28;96219;-62
2023/01/14 11:11:18;;;;;;;;;;;17.30;67.50;;;;;;10370266;28;93456;-62
2023/01/14 11:16:25;;;;;;;;;;;17.30;67.70;;;;;;10370247;28;93298;-62
2023/01/14 11:21:28;;;;;;;;;;;17.30;67.60;;;;;;10369843;28;94641;-62
2023/01/14 11:26:31;;;;;;;;;;;17.30;67.70;;;;;;10369907;28;94210;-62
2023/01/14 11:31:35;;;;;;;;;;;17.40;67.70;;;;;;10368918;28;93478;-62
2023/01/14 11:36:37;;;;;;;;;;;17.30;67.70;;;;;;10369199;28;94567;-62
2023/01/14 11:41:39;;;;;;;;;;;17.30;67.70;;;;;;10370314;28;93721;-63
2023/01/14 11:46:44;;;;;;;;;;;17.30;68.70;;;;;;10367492;28;94967;-62
2023/01/14 11:51:55;;;;;;;;;;;17.30;67.70;;;;;;10367054;28;93423;-62
2023/01/14 11:56:57;;;;;;;;;;;17.20;67.60;;;;;;10365398;28;95504;-62
2023/01/14 12:01:59;;;;;;;;;;;17.20;67.80;;;;;;10374562;28;93451;-62
2023/01/14 12:07:05;;;;;;;;;;;17.10;67.90;;;;;;10375998;28;93235;-62
2023/01/14 12:12:25;;;;;;;;;;;17.10;68.60;;;;;;10376431;28;94790;-62
2023/01/14 12:17:49;;;;;;;;;;;17.10;68.10;;;;;;10375924;28;94532;-62
2023/01/14 12:22:57;;;;;;;;;;;17.10;68.10;;;;;;10376147;28;93966;-62
2023/01/14 12:28:09;;;;;;;;;;;17.10;68.10;;;;;;10374221;28;94500;-62
2023/01/14 12:33:16;;;;;;;;;;;17.00;68.30;;;;;;10375789;28;92958;-61
2023/01/14 12:49:19;;;;;;;;;;;17.10;68.80;;;;;;10372714;28;95856;-63
2023/01/14 12:54:23;;;;;;;;;;;17.10;69.80;;;;;;10375478;28;94558;-63
2023/01/14 12:59:38;;;;;;;;;;;17.10;69.50;;;;;;10375088;28;93400;-64
2023/01/14 13:04:51;;;;;;;;;;;17.10;70.20;;;;;;10373539;28;93594;-63
2023/01/14 13:09:54;;;;;;;;;;;17.20;70.10;;;;;;10368732;28;94102;-63
2023/01/14 13:14:57;;;;;;;;;;;17.20;69.80;;;;;;10369556;28;95630;-62
2023/01/14 13:20:01;;;;;;;;;;;17.10;69.30;;;;;;10371368;28;93326;-63
2023/01/14 13:25:15;;;;;;;;;;;17.10;69.10;;;;;;10374527;28;92724;-63
2023/01/14 13:30:16;;;;;;;;;;;17.10;68.90;;;;;;10372857;28;93455;-64
2023/01/14 13:35:20;;;;;;;;;;;17.00;69.10;;;;;;10373346;28;93464;-64
2023/01/14 13:40:25;;;;;;;;;;;17.00;69.00;;;;;;10370677;28;95810;-64
2023/01/14 13:45:28;;;;;;;;;;;17.10;69.10;;;;;;10372208;28;93540;-64
2023/01/14 13:50:31;;;;;;;;;;;17.10;69.00;;;;;;10371796;28;93426;-63
2023/01/14 13:55:34;;;;;;;;;;;17.10;68.90;;;;;;10372109;28;93543;-63
2023/01/14 14:00:37;;;;;;;;;;;17.10;69.10;;;;;;10372173;28;94498;-64
2023/01/14 14:05:39;;;;;;;;;;;17.10;69.00;;;;;;10371145;28;93662;-63
2023/01/14 14:10:42;;;;;;;;;;;17.10;69.00;;;;;;10371856;28;94448;-61
2023/01/14 14:15:48;;;;;;;;;;;17.00;68.90;;;;;;10371655;28;93297;-63
2023/01/14 14:20:50;;;;;;;;;;;17.10;68.90;;;;;;10370716;28;93194;-64
2023/01/14 14:25:52;;;;;;;;;;;17.10;68.90;;;;;;10370353;28;93247;-63
2023/01/14 14:30:57;;;;;;;;;;;17.10;68.70;;;;;;10366845;28;95885;-64
2023/01/14 14:36:00;;;;;;;;;;;17.10;68.70;;;;;;10371613;28;92662;-63
2023/01/14 14:41:06;;;;;;;;;;;17.10;68.80;;;;;;10370325;28;94296;-62
2023/01/14 14:46:10;;;;;;;;;;;17.00;68.90;;;;;;10371031;28;94457;-62
2023/01/14 14:51:13;;;;;;;;;;;17.00;69.00;;;;;;10370350;28;93448;-62
2023/01/14 14:56:18;;;;;;;;;;;17.00;69.00;;;;;;10369685;28;93279;-62
2023/01/14 15:01:23;;;;;;;;;;;17.00;69.00;;;;;;10369538;28;95014;-62
2023/01/14 15:06:30;;;;;;;;;;;17.00;69.20;;;;;;10371647;28;93331;-63
2023/01/14 15:11:34;;;;;;;;;;;16.90;69.10;;;;;;10370239;28;92494;-62
2023/01/14 15:16:36;;;;;;;;;;;16.90;69.20;;;;;;10369975;28;93657;-62
2023/01/14 15:21:38;;;;;;;;;;;16.90;69.30;;;;;;10367531;28;96165;-62
2023/01/14 15:26:40;;;;;;;;;;;16.80;69.40;;;;;;10369661;28;93605;-62
2023/01/14 15:31:41;;;;;;;;;;;16.80;69.30;;;;;;10367217;28;93994;-62
2023/01/14 15:36:45;;;;;;;;;;;16.90;69.60;;;;;;10374170;28;92941;-62
2023/01/14 15:41:46;;;;;;;;;;;16.90;69.50;;;;;;10377372;28;94069;-62
2023/01/14 15:46:48;;;;;;;;;;;17.00;69.30;;;;;;10376167;28;94875;-63
2023/01/14 15:51:50;;;;;;;;;;;17.10;69.10;;;;;;10374382;28;93485;-63
2023/01/14 15:56:52;;;;;;;;;;;17.20;68.90;;;;;;10376420;28;93247;-62
2023/01/14 16:01:54;;;;;;;;;;;17.40;68.70;;;;;;10375313;28;93510;-62
2023/01/14 16:07:13;;;;;;;;;;;17.60;68.60;;;;;;10357043;28;94432;-62
2023/01/14 16:12:15;;;;;;;;;;;17.70;68.60;;;;;;10372139;28;95988;-63
2023/01/14 16:17:18;;;;;;;;;;;17.90;68.30;;;;;;10375262;28;94443;-62
2023/01/14 16:22:20;;;;;;;;;;;17.90;68.00;;;;;;10374177;28;94951;-63
2023/01/14 16:27:22;;;;;;;;;;;18.00;68.00;;;;;;10374837;28;95077;-62
2023/01/14 16:32:24;;;;;;;;;;;18.00;68.00;;;;;;10374922;28;93487;-63
2023/01/14 16:37:26;;;;;;;;;;;18.00;68.40;;;;;;10371989;28;93525;-61
2023/01/14 16:42:28;;;;;;;;;;;18.00;69.70;;;;;;10373051;28;94464;-61
2023/01/14 16:47:30;;;;;;;;;;;18.00;69.90;;;;;;10373998;28;93275;-61
2023/01/14 16:52:31;;;;;;;;;;;18.00;69.90;;;;;;10373910;28;93349;-61
2023/01/14 16:57:33;;;;;;;;;;;18.20;70.20;;;;;;10373699;28;93319;-61
2023/01/14 17:02:35;;;;;;;;;;;18.30;71.70;;;;;;10370424;28;96960;-61
2023/01/14 17:07:38;;;;;;;;;;;18.30;73.30;;;;;;10371886;28;94381;-61
2023/01/14 17:12:41;;;;;;;;;;;18.40;75.70;;;;;;10373532;28;94521;-59
2023/01/14 17:17:43;;;;;;;;;;;18.40;75.30;;;;;;10369417;28;96141;-62
2023/01/14 17:22:45;;;;;;;;;;;18.50;73.70;;;;;;10371850;28;93199;-60
2023/01/14 17:27:51;;;;;;;;;;;18.70;71.50;;;;;;10371873;28;93600;-62
2023/01/14 17:32:53;;;;;;;;;;;18.80;71.40;;;;;;10372983;28;94283;-60
2023/01/14 17:37:58;;;;;;;;;;;18.90;70.70;;;;;;10373025;28;93900;-60
2023/01/14 17:43:00;;;;;;;;;;;18.90;70.90;;;;;;10372214;28;94609;-60
2023/01/14 17:48:01;;;;;;;;;;;19.00;71.00;;;;;;10370734;28;94546;-60
2023/01/14 17:53:03;;;;;;;;;;;19.00;71.20;;;;;;10370166;28;96544;-60
2023/01/14 17:58:05;;;;;;;;;;;18.90;71.30;;;;;;10371896;28;94531;-60
2023/01/14 18:03:07;;;;;;;;;;;18.90;71.60;;;;;;10371694;28;94803;-60
2023/01/14 18:08:09;;;;;;;;;;;18.80;72.20;;;;;;10371264;28;92622;-60
2023/01/14 18:13:10;;;;;;;;;;;18.70;72.00;;;;;;10370353;28;94490;-60
2023/01/14 18:18:12;;;;;;;;;;;18.70;72.20;;;;;;10370982;28;94421;-60
2023/01/14 18:23:15;;;;;;;;;;;18.60;72.80;;;;;;10369780;28;93534;-61
2023/01/14 18:28:18;;;;;;;;;;;18.50;72.40;;;;;;10367348;28;93076;-61
2023/01/14 18:33:19;;;;;;;;;;;18.50;73.10;;;;;;10366774;28;93356;-60
2023/01/14 18:38:21;;;;;;;;;;;18.50;74.00;;;;;;10368120;28;94539;-61
2023/01/14 18:43:23;;;;;;;;;;;18.50;74.50;;;;;;10368372;28;95844;-61
2023/01/14 18:48:25;;;;;;;;;;;18.50;74.30;;;;;;10368507;28;93650;-61
2023/01/14 18:53:26;;;;;;;;;;;18.50;74.00;;;;;;10368453;28;93456;-63
2023/01/14 18:58:29;;;;;;;;;;;18.40;74.50;;;;;;10370574;28;93449;-63
2023/01/14 19:03:31;;;;;;;;;;;18.40;74.60;;;;;;10368605;28;93396;-63
2023/01/14 19:08:33;;;;;;;;;;;18.40;74.90;;;;;;10367762;28;93703;-63
2023/01/14 19:13:34;;;;;;;;;;;18.40;74.40;;;;;;10369569;28;93450;-64
2023/01/14 19:18:36;;;;;;;;;;;18.30;74.10;;;;;;10369743;28;93570;-63
2023/01/14 19:23:38;;;;;;;;;;;18.30;74.00;;;;;;10368279;28;93581;-63
2023/01/14 19:28:43;;;;;;;;;;;18.20;74.00;;;;;;10367681;28;94455;-63
2023/01/14 19:33:44;;;;;;;;;;;18.20;74.10;;;;;;10364777;28;95607;-63
2023/01/14 19:38:46;;;;;;;;;;;18.20;74.10;;;;;;10368701;28;93499;-64
2023/01/14 19:43:48;;;;;;;;;;;18.10;74.00;;;;;;10368735;28;93430;-63
2023/01/14 19:48:50;;;;;;;;;;;18.10;74.00;;;;;;10368694;28;93483;-64
2023/01/14 19:53:52;;;;;;;;;;;18.10;74.00;;;;;;10368143;28;93930;-63
2023/01/14 19:58:56;;;;;;;;;;;18.10;73.80;;;;;;10368318;28;92768;-64
2023/01/14 20:03:59;;;;;;;;;;;18.10;73.60;;;;;;10368102;28;93728;-63
2023/01/14 20:09:01;;;;;;;;;;;18.10;74.00;;;;;;10368595;28;92772;-63
2023/01/14 20:14:03;;;;;;;;;;;18.00;73.90;;;;;;10368303;28;94511;-63
2023/01/14 20:19:05;;;;;;;;;;;18.00;73.80;;;;;;10368413;28;94001;-63
2023/01/14 20:24:07;;;;;;;;;;;18.00;73.70;;;;;;10371865;28;96480;-63
2023/01/14 20:29:09;;;;;;;;;;;18.00;73.70;;;;;;10374910;28;94471;-64
2023/01/14 20:34:10;;;;;;;;;;;18.00;73.50;;;;;;10373767;28;92809;-63
2023/01/14 20:39:18;;;;;;;;;;;18.00;74.70;;;;;;10373863;28;94392;-64
2023/01/14 20:49:39;;;;;;;;;;;18.10;73.80;;;;;;10374063;28;94113;-63
2023/01/14 20:54:41;;;;;;;;;;;18.00;73.30;;;;;;10372045;28;93238;-63
2023/01/14 20:59:44;;;;;;;;;;;17.90;72.60;;;;;;10393423;28;93533;-64
2023/01/14 21:04:45;;;;;;;;;;;17.90;72.50;;;;;;10414628;28;94723;-63
2023/01/14 21:09:48;;;;;;;;;;;17.80;72.80;;;;;;10415579;28;94422;-63
2023/01/14 21:25:34;;;;;;;;;;;17.70;72.70;;;;;;10414338;27;93522;-64
2023/01/14 21:30:38;;;;;;;;;;;17.70;72.90;;;;;;10414644;27;94115;-64
2023/01/14 21:35:40;;;;;;;;;;;17.60;72.60;;;;;;10413904;28;94242;-64
2023/01/14 21:40:42;;;;;;;;;;;17.60;72.60;;;;;;10413706;27;94405;-63
2023/01/14 21:45:44;;;;;;;;;;;17.60;72.50;;;;;;10413621;27;93490;-63
2023/01/14 21:50:59;;;;;;;;;;;17.60;72.50;;;;;;10414085;27;93098;-64
2023/01/14 21:56:02;;;;;;;;;;;17.60;72.40;;;;;;10413046;28;94555;-64
2023/01/14 22:01:05;;;;;;;;;;;17.60;72.50;;;;;;10412673;27;93558;-64
2023/01/14 22:06:10;;;;;;;;;;;17.60;72.30;;;;;;10409203;28;117294;-64
2023/01/14 22:11:14;;;;;;;;;;;17.60;72.40;;;;;;10412928;27;93854;-64
2023/01/14 22:16:15;;;;;;;;;;;17.50;72.20;;;;;;10412423;27;93500;-64
2023/01/14 22:21:17;;;;;;;;;;;17.50;72.30;;;;;;10412877;28;94981;-64
2023/01/14 22:26:19;;;;;;;;;;;17.50;72.30;;;;;;10411965;27;93626;-64
2023/01/14 22:31:21;;;;;;;;;;;17.50;72.10;;;;;;10411031;27;93493;-64
2023/01/14 22:36:23;;;;;;;;;;;17.40;73.00;;;;;;10411851;27;93993;-64
2023/01/14 22:41:25;;;;;;;;;;;17.30;72.10;;;;;;10413298;28;92518;-64
2023/01/14 22:46:27;;;;;;;;;;;17.30;71.90;;;;;;10411351;27;94113;-64
2023/01/14 22:51:28;;;;;;;;;;;17.20;71.90;;;;;;10412040;27;94037;-63
2023/01/14 22:56:30;;;;;;;;;;;17.20;71.90;;;;;;10409290;28;96173;-64
2023/01/14 23:01:31;;;;;;;;;;;17.20;71.90;;;;;;10412044;28;94393;-64
2023/01/14 23:06:33;;;;;;;;;;;17.10;71.80;;;;;;10411709;27;93440;-64
2023/01/14 23:11:35;;;;;;;;;;;17.10;71.80;;;;;;10412020;28;94338;-64
2023/01/14 23:27:17;;;;;;;;;;;17.00;71.40;;;;;;10411275;28;94353;-64
2023/01/14 23:32:20;;;;;;;;;;;17.00;71.30;;;;;;10411782;28;93852;-64
2023/01/14 23:37:21;;;;;;;;;;;16.90;71.10;;;;;;10410235;27;94572;-64
2023/01/14 23:42:23;;;;;;;;;;;16.90;71.10;;;;;;10411199;28;94466;-64
2023/01/14 23:47:42;;;;;;;;;;;16.90;70.90;;;;;;10408023;28;96944;-64
2023/01/14 23:52:44;;;;;;;;;;;16.90;71.00;;;;;;10410220;27;92995;-64
2023/01/14 23:57:45;;;;;;;;;;;16.80;70.90;;;;;;10415633;27;94431;-64
